Terminal Aerodrome Forecast
Issued by NWS Des Moines, IA

Home | Current Version | Previous Version | Text Only | Print | Product List | Glossary On
Versions: 1 2 3 4 5 6 7 8 9 10 11 12 13
000
FTUS43 KDMX 161129
TAFALO
TAF
KALO 161129Z 1612/1712 11006KT 4SM -FZRA OVC006
     FM161600 11006KT 2SM -FZRA OVC003
     FM161800 09007KT 1 1/2SM FZRA OVC003
     FM162200 07008KT 1 1/2SM RA OVC003
     FM170200 06007KT 1 1/2SM -FZRA OVC003
     FM170700 36006KT P6SM OVC003=

USA.gov is the U.S. government's official web portal to all federal, state and local government web resources and services.